sensor_id;sensor_type;location;lat;lon;timestamp;P1;durP1;ratioP1;P2;durP2;ratioP2
25721;SDS011;13578;53.450;15.496;2023-10-31T00:01:38;8.88;;;3.60;;
25721;SDS011;13578;53.450;15.496;2023-10-31T00:04:39;7.75;;;3.20;;
25721;SDS011;13578;53.450;15.496;2023-10-31T00:07:39;8.05;;;4.07;;
25721;SDS011;13578;53.450;15.496;2023-10-31T00:10:40;11.02;;;3.78;;
25721;SDS011;13578;53.450;15.496;2023-10-31T00:13:44;6.78;;;3.42;;
25721;SDS011;13578;53.450;15.496;2023-10-31T00:16:45;10.55;;;4.20;;
25721;SDS011;13578;53.450;15.496;2023-10-31T00:19:45;10.35;;;4.22;;
25721;SDS011;13578;53.450;15.496;2023-10-31T00:22:46;8.95;;;4.65;;
25721;SDS011;13578;53.450;15.496;2023-10-31T00:25:47;10.23;;;4.40;;
25721;SDS011;13578;53.450;15.496;2023-10-31T00:28:47;10.02;;;4.00;;
25721;SDS011;13578;53.450;15.496;2023-10-31T00:31:48;8.27;;;4.18;;
25721;SDS011;13578;53.450;15.496;2023-10-31T00:34:48;10.35;;;4.22;;
25721;SDS011;13578;53.450;15.496;2023-10-31T00:37:49;9.27;;;4.65;;
25721;SDS011;13578;53.450;15.496;2023-10-31T00:40:50;12.50;;;4.70;;
25721;SDS011;13578;53.450;15.496;2023-10-31T00:43:50;12.93;;;4.53;;
25721;SDS011;13578;53.450;15.496;2023-10-31T00:46:51;12.48;;;5.07;;
25721;SDS011;13578;53.450;15.496;2023-10-31T00:49:51;9.85;;;4.72;;
25721;SDS011;13578;53.450;15.496;2023-10-31T00:52:53;10.18;;;4.88;;
25721;SDS011;13578;53.450;15.496;2023-10-31T00:55:53;9.35;;;4.68;;
25721;SDS011;13578;53.450;15.496;2023-10-31T00:58:54;14.88;;;4.68;;
25721;SDS011;13578;53.450;15.496;2023-10-31T01:01:54;12.43;;;5.25;;
25721;SDS011;13578;53.450;15.496;2023-10-31T01:04:55;8.13;;;5.18;;
25721;SDS011;13578;53.450;15.496;2023-10-31T01:07:56;16.20;;;6.57;;
25721;SDS011;13578;53.450;15.496;2023-10-31T01:10:56;12.68;;;5.82;;
25721;SDS011;13578;53.450;15.496;2023-10-31T01:13:57;12.80;;;6.03;;
25721;SDS011;13578;53.450;15.496;2023-10-31T01:16:57;9.63;;;5.72;;
25721;SDS011;13578;53.450;15.496;2023-10-31T01:19:58;12.65;;;5.75;;
25721;SDS011;13578;53.450;15.496;2023-10-31T01:22:59;10.82;;;6.05;;
25721;SDS011;13578;53.450;15.496;2023-10-31T01:25:59;12.77;;;5.53;;
25721;SDS011;13578;53.450;15.496;2023-10-31T01:29:00;11.15;;;5.53;;
25721;SDS011;13578;53.450;15.496;2023-10-31T01:32:00;14.20;;;6.00;;
25721;SDS011;13578;53.450;15.496;2023-10-31T01:35:01;10.68;;;5.20;;
25721;SDS011;13578;53.450;15.496;2023-10-31T01:38:03;15.70;;;5.65;;
25721;SDS011;13578;53.450;15.496;2023-10-31T01:41:04;12.23;;;5.80;;
25721;SDS011;13578;53.450;15.496;2023-10-31T01:44:04;13.15;;;6.47;;
25721;SDS011;13578;53.450;15.496;2023-10-31T01:47:05;15.05;;;6.15;;
25721;SDS011;13578;53.450;15.496;2023-10-31T01:50:06;15.80;;;6.60;;
25721;SDS011;13578;53.450;15.496;2023-10-31T01:53:07;14.50;;;7.22;;
25721;SDS011;13578;53.450;15.496;2023-10-31T01:56:08;12.43;;;5.72;;
25721;SDS011;13578;53.450;15.496;2023-10-31T01:59:09;16.35;;;6.88;;
25721;SDS011;13578;53.450;15.496;2023-10-31T02:02:09;14.10;;;6.00;;
25721;SDS011;13578;53.450;15.496;2023-10-31T02:05:10;12.50;;;6.22;;
25721;SDS011;13578;53.450;15.496;2023-10-31T02:08:11;14.15;;;6.63;;
25721;SDS011;13578;53.450;15.496;2023-10-31T02:11:12;12.07;;;5.88;;
25721;SDS011;13578;53.450;15.496;2023-10-31T02:14:12;15.75;;;5.95;;
25721;SDS011;13578;53.450;15.496;2023-10-31T02:17:13;14.68;;;6.35;;
25721;SDS011;13578;53.450;15.496;2023-10-31T02:20:14;12.82;;;6.05;;
25721;SDS011;13578;53.450;15.496;2023-10-31T02:23:17;21.00;;;6.22;;
25721;SDS011;13578;53.450;15.496;2023-10-31T02:26:18;14.85;;;7.15;;
25721;SDS011;13578;53.450;15.496;2023-10-31T02:29:18;16.08;;;6.25;;
25721;SDS011;13578;53.450;15.496;2023-10-31T02:32:19;11.40;;;6.65;;
25721;SDS011;13578;53.450;15.496;2023-10-31T02:35:20;19.92;;;7.80;;
25721;SDS011;13578;53.450;15.496;2023-10-31T02:38:20;15.35;;;7.05;;
25721;SDS011;13578;53.450;15.496;2023-10-31T02:41:21;14.98;;;7.10;;
25721;SDS011;13578;53.450;15.496;2023-10-31T02:44:22;11.48;;;7.10;;
25721;SDS011;13578;53.450;15.496;2023-10-31T02:47:22;13.68;;;6.85;;
25721;SDS011;13578;53.450;15.496;2023-10-31T02:50:23;16.33;;;7.13;;
25721;SDS011;13578;53.450;15.496;2023-10-31T02:53:24;14.30;;;6.95;;
25721;SDS011;13578;53.450;15.496;2023-10-31T02:56:24;15.60;;;7.70;;
25721;SDS011;13578;53.450;15.496;2023-10-31T02:59:25;12.55;;;6.57;;
25721;SDS011;13578;53.450;15.496;2023-10-31T03:02:26;15.50;;;7.15;;
25721;SDS011;13578;53.450;15.496;2023-10-31T03:05:27;12.35;;;6.38;;
25721;SDS011;13578;53.450;15.496;2023-10-31T03:08:28;14.38;;;6.70;;
25721;SDS011;13578;53.450;15.496;2023-10-31T03:11:28;16.88;;;7.53;;
25721;SDS011;13578;53.450;15.496;2023-10-31T03:14:29;12.77;;;7.68;;
25721;SDS011;13578;53.450;15.496;2023-10-31T03:17:30;25.60;;;8.27;;
25721;SDS011;13578;53.450;15.496;2023-10-31T03:20:30;20.98;;;8.38;;
25721;SDS011;13578;53.450;15.496;2023-10-31T03:23:31;19.08;;;8.63;;
25721;SDS011;13578;53.450;15.496;2023-10-31T03:26:32;12.20;;;7.63;;
25721;SDS011;13578;53.450;15.496;2023-10-31T03:29:32;16.02;;;7.53;;
25721;SDS011;13578;53.450;15.496;2023-10-31T03:32:33;20.80;;;8.95;;
25721;SDS011;13578;53.450;15.496;2023-10-31T03:35:33;13.45;;;7.82;;
25721;SDS011;13578;53.450;15.496;2023-10-31T03:38:34;18.60;;;8.77;;
25721;SDS011;13578;53.450;15.496;2023-10-31T03:41:36;22.90;;;7.88;;
25721;SDS011;13578;53.450;15.496;2023-10-31T03:44:36;22.77;;;7.65;;
25721;SDS011;13578;53.450;15.496;2023-10-31T03:47:37;13.50;;;7.45;;
25721;SDS011;13578;53.450;15.496;2023-10-31T03:50:38;20.23;;;8.65;;
25721;SDS011;13578;53.450;15.496;2023-10-31T03:53:38;19.98;;;8.05;;
25721;SDS011;13578;53.450;15.496;2023-10-31T03:56:39;14.85;;;6.75;;
25721;SDS011;13578;53.450;15.496;2023-10-31T03:59:43;22.60;;;8.10;;
25721;SDS011;13578;53.450;15.496;2023-10-31T04:02:44;21.23;;;8.23;;
25721;SDS011;13578;53.450;15.496;2023-10-31T04:05:45;15.35;;;7.07;;
25721;SDS011;13578;53.450;15.496;2023-10-31T04:08:46;17.65;;;8.65;;
25721;SDS011;13578;53.450;15.496;2023-10-31T04:11:47;16.73;;;7.72;;
25721;SDS011;13578;53.450;15.496;2023-10-31T04:14:47;18.48;;;8.15;;
25721;SDS011;13578;53.450;15.496;2023-10-31T04:17:48;14.70;;;8.15;;
25721;SDS011;13578;53.450;15.496;2023-10-31T04:20:48;15.93;;;8.13;;
25721;SDS011;13578;53.450;15.496;2023-10-31T04:23:49;16.98;;;7.85;;
25721;SDS011;13578;53.450;15.496;2023-10-31T04:26:49;17.27;;;7.97;;
25721;SDS011;13578;53.450;15.496;2023-10-31T04:29:50;15.05;;;8.25;;
25721;SDS011;13578;53.450;15.496;2023-10-31T04:32:51;19.52;;;8.98;;
25721;SDS011;13578;53.450;15.496;2023-10-31T04:35:51;19.38;;;9.52;;
25721;SDS011;13578;53.450;15.496;2023-10-31T04:38:52;13.73;;;7.63;;
25721;SDS011;13578;53.450;15.496;2023-10-31T04:41:53;17.00;;;8.80;;
25721;SDS011;13578;53.450;15.496;2023-10-31T04:44:54;17.17;;;8.77;;
25721;SDS011;13578;53.450;15.496;2023-10-31T04:47:54;14.73;;;7.93;;
25721;SDS011;13578;53.450;15.496;2023-10-31T04:50:55;14.15;;;8.00;;
25721;SDS011;13578;53.450;15.496;2023-10-31T04:53:56;14.57;;;8.07;;
25721;SDS011;13578;53.450;15.496;2023-10-31T04:56:57;19.73;;;8.02;;
25721;SDS011;13578;53.450;15.496;2023-10-31T04:59:58;25.52;;;8.73;;
25721;SDS011;13578;53.450;15.496;2023-10-31T05:02:59;14.23;;;8.25;;
25721;SDS011;13578;53.450;15.496;2023-10-31T05:06:02;17.23;;;8.30;;
25721;SDS011;13578;53.450;15.496;2023-10-31T05:09:03;17.85;;;9.38;;
25721;SDS011;13578;53.450;15.496;2023-10-31T05:12:05;16.25;;;9.55;;
25721;SDS011;13578;53.450;15.496;2023-10-31T05:15:06;13.60;;;8.15;;
25721;SDS011;13578;53.450;15.496;2023-10-31T05:18:07;32.45;;;10.20;;
25721;SDS011;13578;53.450;15.496;2023-10-31T05:21:08;14.90;;;8.50;;
25721;SDS011;13578;53.450;15.496;2023-10-31T05:24:08;15.40;;;7.97;;
25721;SDS011;13578;53.450;15.496;2023-10-31T05:27:09;14.75;;;8.20;;
25721;SDS011;13578;53.450;15.496;2023-10-31T05:30:10;15.30;;;8.63;;
25721;SDS011;13578;53.450;15.496;2023-10-31T05:33:16;13.43;;;8.52;;
25721;SDS011;13578;53.450;15.496;2023-10-31T05:36:17;15.85;;;7.38;;
25721;SDS011;13578;53.450;15.496;2023-10-31T05:39:21;14.90;;;8.23;;
25721;SDS011;13578;53.450;15.496;2023-10-31T05:42:22;12.95;;;7.90;;
25721;SDS011;13578;53.450;15.496;2023-10-31T05:45:23;11.95;;;7.43;;
25721;SDS011;13578;53.450;15.496;2023-10-31T05:48:24;12.25;;;7.82;;
25721;SDS011;13578;53.450;15.496;2023-10-31T05:51:25;12.10;;;7.05;;
25721;SDS011;13578;53.450;15.496;2023-10-31T05:54:26;15.23;;;7.68;;
25721;SDS011;13578;53.450;15.496;2023-10-31T05:57:26;13.68;;;7.63;;
25721;SDS011;13578;53.450;15.496;2023-10-31T06:00:27;11.90;;;8.25;;
25721;SDS011;13578;53.450;15.496;2023-10-31T06:03:28;12.38;;;7.53;;
25721;SDS011;13578;53.450;15.496;2023-10-31T06:06:29;11.43;;;6.93;;
25721;SDS011;13578;53.450;15.496;2023-10-31T06:09:32;11.50;;;7.10;;
25721;SDS011;13578;53.450;15.496;2023-10-31T06:12:33;15.85;;;7.55;;
25721;SDS011;13578;53.450;15.496;2023-10-31T06:15:34;13.43;;;7.43;;
25721;SDS011;13578;53.450;15.496;2023-10-31T06:18:35;13.23;;;7.80;;
25721;SDS011;13578;53.450;15.496;2023-10-31T06:21:36;12.88;;;8.05;;
25721;SDS011;13578;53.450;15.496;2023-10-31T06:24:36;14.65;;;7.20;;
25721;SDS011;13578;53.450;15.496;2023-10-31T06:27:37;17.73;;;7.95;;
25721;SDS011;13578;53.450;15.496;2023-10-31T06:30:38;14.77;;;7.75;;
25721;SDS011;13578;53.450;15.496;2023-10-31T06:33:38;15.18;;;8.38;;
25721;SDS011;13578;53.450;15.496;2023-10-31T06:36:39;15.40;;;8.88;;
25721;SDS011;13578;53.450;15.496;2023-10-31T06:39:40;12.82;;;7.43;;
25721;SDS011;13578;53.450;15.496;2023-10-31T06:42:40;13.38;;;7.10;;
25721;SDS011;13578;53.450;15.496;2023-10-31T06:45:41;12.32;;;7.15;;
25721;SDS011;13578;53.450;15.496;2023-10-31T06:48:42;10.70;;;6.18;;
25721;SDS011;13578;53.450;15.496;2023-10-31T06:51:42;12.02;;;6.13;;
25721;SDS011;13578;53.450;15.496;2023-10-31T06:54:43;6.78;;;5.15;;
25721;SDS011;13578;53.450;15.496;2023-10-31T06:57:44;8.15;;;5.80;;
25721;SDS011;13578;53.450;15.496;2023-10-31T07:00:44;12.23;;;5.38;;
25721;SDS011;13578;53.450;15.496;2023-10-31T07:03:45;8.48;;;4.93;;
25721;SDS011;13578;53.450;15.496;2023-10-31T07:06:47;7.00;;;4.28;;
25721;SDS011;13578;53.450;15.496;2023-10-31T07:09:48;6.57;;;4.22;;
25721;SDS011;13578;53.450;15.496;2023-10-31T07:12:48;7.43;;;4.70;;
25721;SDS011;13578;53.450;15.496;2023-10-31T07:15:49;9.20;;;5.78;;
25721;SDS011;13578;53.450;15.496;2023-10-31T07:18:49;7.95;;;5.43;;
25721;SDS011;13578;53.450;15.496;2023-10-31T07:21:50;6.68;;;4.72;;
25721;SDS011;13578;53.450;15.496;2023-10-31T07:24:51;9.88;;;5.10;;
25721;SDS011;13578;53.450;15.496;2023-10-31T07:27:52;6.75;;;4.70;;
25721;SDS011;13578;53.450;15.496;2023-10-31T07:30:52;8.27;;;4.32;;
25721;SDS011;13578;53.450;15.496;2023-10-31T07:33:53;6.85;;;5.00;;
25721;SDS011;13578;53.450;15.496;2023-10-31T07:36:54;8.07;;;4.97;;
25721;SDS011;13578;53.450;15.496;2023-10-31T07:39:54;8.60;;;5.18;;
25721;SDS011;13578;53.450;15.496;2023-10-31T07:42:55;7.07;;;4.78;;
25721;SDS011;13578;53.450;15.496;2023-10-31T07:45:56;6.78;;;4.60;;
25721;SDS011;13578;53.450;15.496;2023-10-31T07:48:56;7.63;;;4.45;;
25721;SDS011;13578;53.450;15.496;2023-10-31T07:51:57;7.63;;;5.38;;
25721;SDS011;13578;53.450;15.496;2023-10-31T07:54:58;8.60;;;5.80;;
25721;SDS011;13578;53.450;15.496;2023-10-31T07:57:59;10.75;;;5.65;;
25721;SDS011;13578;53.450;15.496;2023-10-31T08:00:59;13.00;;;6.38;;
25721;SDS011;13578;53.450;15.496;2023-10-31T08:04:00;15.63;;;7.03;;
25721;SDS011;13578;53.450;15.496;2023-10-31T08:07:01;13.48;;;7.13;;
25721;SDS011;13578;53.450;15.496;2023-10-31T08:10:02;11.20;;;7.47;;
25721;SDS011;13578;53.450;15.496;2023-10-31T08:13:04;14.88;;;8.30;;
25721;SDS011;13578;53.450;15.496;2023-10-31T08:16:05;12.50;;;7.75;;
25721;SDS011;13578;53.450;15.496;2023-10-31T08:19:06;15.68;;;8.98;;
25721;SDS011;13578;53.450;15.496;2023-10-31T08:22:07;14.10;;;9.10;;
25721;SDS011;13578;53.450;15.496;2023-10-31T08:25:08;16.83;;;9.57;;
25721;SDS011;13578;53.450;15.496;2023-10-31T08:28:09;17.60;;;10.73;;
25721;SDS011;13578;53.450;15.496;2023-10-31T08:31:10;18.58;;;11.15;;
25721;SDS011;13578;53.450;15.496;2023-10-31T08:34:11;18.85;;;12.43;;
25721;SDS011;13578;53.450;15.496;2023-10-31T08:37:12;21.30;;;11.85;;
25721;SDS011;13578;53.450;15.496;2023-10-31T08:40:13;23.92;;;13.07;;
25721;SDS011;13578;53.450;15.496;2023-10-31T08:43:13;21.63;;;13.20;;
25721;SDS011;13578;53.450;15.496;2023-10-31T08:46:14;24.83;;;14.13;;
25721;SDS011;13578;53.450;15.496;2023-10-31T08:49:16;23.65;;;13.30;;
25721;SDS011;13578;53.450;15.496;2023-10-31T08:52:17;24.65;;;14.63;;
25721;SDS011;13578;53.450;15.496;2023-10-31T08:55:18;24.85;;;14.68;;
25721;SDS011;13578;53.450;15.496;2023-10-31T08:58:18;25.00;;;14.75;;
25721;SDS011;13578;53.450;15.496;2023-10-31T09:01:19;26.50;;;14.50;;
25721;SDS011;13578;53.450;15.496;2023-10-31T09:04:20;24.20;;;14.77;;
25721;SDS011;13578;53.450;15.496;2023-10-31T09:07:20;39.90;;;16.00;;
25721;SDS011;13578;53.450;15.496;2023-10-31T09:10:21;28.15;;;15.27;;
25721;SDS011;13578;53.450;15.496;2023-10-31T09:13:22;36.97;;;16.35;;
25721;SDS011;13578;53.450;15.496;2023-10-31T09:16:22;24.73;;;13.98;;
25721;SDS011;13578;53.450;15.496;2023-10-31T09:19:23;25.23;;;13.93;;
25721;SDS011;13578;53.450;15.496;2023-10-31T09:22:23;25.67;;;15.25;;
25721;SDS011;13578;53.450;15.496;2023-10-31T09:25:24;25.17;;;14.48;;
25721;SDS011;13578;53.450;15.496;2023-10-31T09:28:25;25.73;;;14.95;;
25721;SDS011;13578;53.450;15.496;2023-10-31T09:31:26;25.63;;;14.57;;
25721;SDS011;13578;53.450;15.496;2023-10-31T09:34:26;25.27;;;14.50;;
25721;SDS011;13578;53.450;15.496;2023-10-31T09:37:27;25.48;;;14.85;;
25721;SDS011;13578;53.450;15.496;2023-10-31T09:40:27;26.67;;;14.57;;
25721;SDS011;13578;53.450;15.496;2023-10-31T09:43:28;17.98;;;11.43;;
25721;SDS011;13578;53.450;15.496;2023-10-31T09:46:28;18.40;;;10.43;;
25721;SDS011;13578;53.450;15.496;2023-10-31T09:49:29;15.68;;;9.25;;
25721;SDS011;13578;53.450;15.496;2023-10-31T09:52:30;15.77;;;8.18;;
25721;SDS011;13578;53.450;15.496;2023-10-31T09:55:30;10.18;;;6.20;;
25721;SDS011;13578;53.450;15.496;2023-10-31T09:58:31;9.82;;;6.07;;
25721;SDS011;13578;53.450;15.496;2023-10-31T10:01:32;8.25;;;6.20;;
25721;SDS011;13578;53.450;15.496;2023-10-31T10:04:32;12.85;;;7.28;;
25721;SDS011;13578;53.450;15.496;2023-10-31T10:07:34;16.15;;;8.98;;
25721;SDS011;13578;53.450;15.496;2023-10-31T10:10:37;14.52;;;8.35;;
25721;SDS011;13578;53.450;15.496;2023-10-31T10:13:38;11.73;;;8.18;;
25721;SDS011;13578;53.450;15.496;2023-10-31T10:16:39;14.70;;;7.78;;
25721;SDS011;13578;53.450;15.496;2023-10-31T10:19:40;15.07;;;7.65;;
25721;SDS011;13578;53.450;15.496;2023-10-31T10:22:41;13.68;;;8.38;;
25721;SDS011;13578;53.450;15.496;2023-10-31T10:25:43;20.90;;;11.35;;
25721;SDS011;13578;53.450;15.496;2023-10-31T10:28:46;20.77;;;11.38;;
25721;SDS011;13578;53.450;15.496;2023-10-31T10:31:48;17.73;;;10.48;;
25721;SDS011;13578;53.450;15.496;2023-10-31T10:34:48;15.95;;;9.75;;
25721;SDS011;13578;53.450;15.496;2023-10-31T10:37:49;15.13;;;9.02;;
25721;SDS011;13578;53.450;15.496;2023-10-31T10:40:53;8.43;;;6.35;;
25721;SDS011;13578;53.450;15.496;2023-10-31T10:44:05;7.70;;;5.80;;
25721;SDS011;13578;53.450;15.496;2023-10-31T10:47:07;5.97;;;4.80;;
25721;SDS011;13578;53.450;15.496;2023-10-31T10:50:07;7.32;;;4.53;;
25721;SDS011;13578;53.450;15.496;2023-10-31T10:53:23;6.55;;;3.42;;
25721;SDS011;13578;53.450;15.496;2023-10-31T10:56:36;6.10;;;3.30;;
25721;SDS011;13578;53.450;15.496;2023-10-31T10:59:40;6.68;;;3.50;;
25721;SDS011;13578;53.450;15.496;2023-10-31T11:02:43;5.20;;;3.75;;
25721;SDS011;13578;53.450;15.496;2023-10-31T11:05:45;3.05;;;2.55;;
25721;SDS011;13578;53.450;15.496;2023-10-31T11:08:46;4.32;;;3.92;;
25721;SDS011;13578;53.450;15.496;2023-10-31T11:11:47;4.35;;;3.30;;
25721;SDS011;13578;53.450;15.496;2023-10-31T11:14:49;4.95;;;3.88;;
25721;SDS011;13578;53.450;15.496;2023-10-31T11:17:50;4.25;;;3.78;;
25721;SDS011;13578;53.450;15.496;2023-10-31T11:20:52;5.75;;;4.60;;
25721;SDS011;13578;53.450;15.496;2023-10-31T11:23:57;4.30;;;3.88;;
25721;SDS011;13578;53.450;15.496;2023-10-31T11:27:00;4.65;;;3.70;;
25721;SDS011;13578;53.450;15.496;2023-10-31T11:30:08;4.10;;;3.70;;
25721;SDS011;13578;53.450;15.496;2023-10-31T11:33:21;5.65;;;4.60;;
25721;SDS011;13578;53.450;15.496;2023-10-31T11:36:22;7.43;;;5.25;;
25721;SDS011;13578;53.450;15.496;2023-10-31T11:39:22;6.78;;;5.10;;
25721;SDS011;13578;53.450;15.496;2023-10-31T11:42:25;6.10;;;5.45;;
25721;SDS011;13578;53.450;15.496;2023-10-31T11:45:28;5.97;;;5.28;;
25721;SDS011;13578;53.450;15.496;2023-10-31T11:48:49;5.65;;;5.10;;
25721;SDS011;13578;53.450;15.496;2023-10-31T11:51:55;4.40;;;4.00;;
25721;SDS011;13578;53.450;15.496;2023-10-31T11:54:56;3.90;;;2.97;;
25721;SDS011;13578;53.450;15.496;2023-10-31T11:57:57;2.92;;;2.65;;
25721;SDS011;13578;53.450;15.496;2023-10-31T12:01:04;5.72;;;2.15;;
25721;SDS011;13578;53.450;15.496;2023-10-31T12:04:06;2.47;;;2.08;;
25721;SDS011;13578;53.450;15.496;2023-10-31T12:07:07;1.90;;;1.80;;
25721;SDS011;13578;53.450;15.496;2023-10-31T12:10:08;2.22;;;2.03;;
25721;SDS011;13578;53.450;15.496;2023-10-31T12:13:12;2.20;;;2.00;;
25721;SDS011;13578;53.450;15.496;2023-10-31T12:16:13;2.58;;;2.38;;
25721;SDS011;13578;53.450;15.496;2023-10-31T12:19:14;2.70;;;2.50;;
25721;SDS011;13578;53.450;15.496;2023-10-31T12:22:15;8.73;;;2.45;;
25721;SDS011;13578;53.450;15.496;2023-10-31T12:25:15;2.08;;;1.88;;
25721;SDS011;13578;53.450;15.496;2023-10-31T12:31:23;2.92;;;1.75;;
25721;SDS011;13578;53.450;15.496;2023-10-31T12:34:24;1.70;;;1.60;;
25721;SDS011;13578;53.450;15.496;2023-10-31T12:37:25;1.77;;;1.30;;
25721;SDS011;13578;53.450;15.496;2023-10-31T12:40:26;1.80;;;1.70;;
25721;SDS011;13578;53.450;15.496;2023-10-31T12:43:27;3.55;;;2.10;;
25721;SDS011;13578;53.450;15.496;2023-10-31T12:46:29;2.17;;;1.98;;
25721;SDS011;13578;53.450;15.496;2023-10-31T12:49:31;1.95;;;1.70;;
25721;SDS011;13578;53.450;15.496;2023-10-31T12:55:52;2.25;;;1.80;;
25721;SDS011;13578;53.450;15.496;2023-10-31T12:58:57;4.10;;;1.50;;
25721;SDS011;13578;53.450;15.496;2023-10-31T13:01:59;3.97;;;1.25;;
25721;SDS011;13578;53.450;15.496;2023-10-31T13:05:12;4.97;;;1.05;;
25721;SDS011;13578;53.450;15.496;2023-10-31T13:08:16;1.38;;;1.02;;
25721;SDS011;13578;53.450;15.496;2023-10-31T13:11:16;1.52;;;1.25;;
25721;SDS011;13578;53.450;15.496;2023-10-31T13:14:17;1.67;;;1.33;;
25721;SDS011;13578;53.450;15.496;2023-10-31T13:17:18;1.85;;;1.30;;
25721;SDS011;13578;53.450;15.496;2023-10-31T13:20:19;1.13;;;0.95;;
25721;SDS011;13578;53.450;15.496;2023-10-31T13:23:21;0.80;;;0.70;;
25721;SDS011;13578;53.450;15.496;2023-10-31T13:26:22;1.73;;;1.13;;
25721;SDS011;13578;53.450;15.496;2023-10-31T13:29:23;2.33;;;1.00;;
25721;SDS011;13578;53.450;15.496;2023-10-31T13:32:27;2.80;;;1.10;;
25721;SDS011;13578;53.450;15.496;2023-10-31T13:35:28;0.80;;;0.70;;
25721;SDS011;13578;53.450;15.496;2023-10-31T13:38:29;1.00;;;1.00;;
25721;SDS011;13578;53.450;15.496;2023-10-31T13:41:29;4.28;;;0.95;;
25721;SDS011;13578;53.450;15.496;2023-10-31T13:44:30;1.02;;;0.93;;
25721;SDS011;13578;53.450;15.496;2023-10-31T13:47:31;2.83;;;1.50;;
25721;SDS011;13578;53.450;15.496;2023-10-31T13:50:33;1.05;;;0.93;;
25721;SDS011;13578;53.450;15.496;2023-10-31T13:53:33;1.10;;;0.82;;
25721;SDS011;13578;53.450;15.496;2023-10-31T13:56:34;2.88;;;1.10;;
25721;SDS011;13578;53.450;15.496;2023-10-31T13:59:35;2.50;;;0.93;;
25721;SDS011;13578;53.450;15.496;2023-10-31T14:02:36;1.42;;;0.80;;
25721;SDS011;13578;53.450;15.496;2023-10-31T14:05:38;2.50;;;1.00;;
25721;SDS011;13578;53.450;15.496;2023-10-31T14:08:39;0.77;;;0.70;;
25721;SDS011;13578;53.450;15.496;2023-10-31T14:11:40;1.20;;;0.88;;
25721;SDS011;13578;53.450;15.496;2023-10-31T14:14:41;6.78;;;1.00;;
25721;SDS011;13578;53.450;15.496;2023-10-31T14:17:41;1.17;;;1.00;;
25721;SDS011;13578;53.450;15.496;2023-10-31T14:20:42;2.03;;;1.00;;
25721;SDS011;13578;53.450;15.496;2023-10-31T14:23:42;8.98;;;1.17;;
25721;SDS011;13578;53.450;15.496;2023-10-31T14:26:45;2.30;;;0.95;;
25721;SDS011;13578;53.450;15.496;2023-10-31T14:29:45;1.08;;;0.75;;
25721;SDS011;13578;53.450;15.496;2023-10-31T14:32:46;0.60;;;0.60;;
25721;SDS011;13578;53.450;15.496;2023-10-31T14:35:46;1.65;;;0.75;;
25721;SDS011;13578;53.450;15.496;2023-10-31T14:38:47;2.58;;;0.98;;
25721;SDS011;13578;53.450;15.496;2023-10-31T14:41:48;1.83;;;0.93;;
25721;SDS011;13578;53.450;15.496;2023-10-31T14:44:48;1.00;;;0.70;;
25721;SDS011;13578;53.450;15.496;2023-10-31T14:47:49;1.88;;;1.15;;
25721;SDS011;13578;53.450;15.496;2023-10-31T14:50:49;4.03;;;1.50;;
25721;SDS011;13578;53.450;15.496;2023-10-31T14:53:50;3.85;;;1.27;;
25721;SDS011;13578;53.450;15.496;2023-10-31T14:56:51;1.83;;;1.33;;
25721;SDS011;13578;53.450;15.496;2023-10-31T14:59:51;1.77;;;1.20;;
25721;SDS011;13578;53.450;15.496;2023-10-31T15:02:52;2.08;;;1.20;;
25721;SDS011;13578;53.450;15.496;2023-10-31T15:05:53;2.25;;;1.20;;
25721;SDS011;13578;53.450;15.496;2023-10-31T15:08:53;1.17;;;1.08;;
25721;SDS011;13578;53.450;15.496;2023-10-31T15:11:54;1.48;;;0.90;;
25721;SDS011;13578;53.450;15.496;2023-10-31T15:14:54;3.03;;;1.05;;
25721;SDS011;13578;53.450;15.496;2023-10-31T15:17:56;1.38;;;1.05;;
25721;SDS011;13578;53.450;15.496;2023-10-31T15:20:56;5.90;;;1.13;;
25721;SDS011;13578;53.450;15.496;2023-10-31T15:23:57;1.50;;;1.10;;
25721;SDS011;13578;53.450;15.496;2023-10-31T15:26:58;1.33;;;1.15;;
25721;SDS011;13578;53.450;15.496;2023-10-31T15:30:00;2.25;;;1.00;;
25721;SDS011;13578;53.450;15.496;2023-10-31T15:33:01;1.45;;;0.95;;
25721;SDS011;13578;53.450;15.496;2023-10-31T15:36:01;0.88;;;0.80;;
25721;SDS011;13578;53.450;15.496;2023-10-31T15:39:02;1.35;;;0.90;;
25721;SDS011;13578;53.450;15.496;2023-10-31T15:42:03;1.13;;;0.88;;
25721;SDS011;13578;53.450;15.496;2023-10-31T15:45:04;6.22;;;0.85;;
25721;SDS011;13578;53.450;15.496;2023-10-31T15:48:06;2.40;;;0.80;;
25721;SDS011;13578;53.450;15.496;2023-10-31T15:51:10;0.70;;;0.70;;
25721;SDS011;13578;53.450;15.496;2023-10-31T15:54:10;2.58;;;0.93;;
25721;SDS011;13578;53.450;15.496;2023-10-31T15:57:11;1.00;;;0.88;;
25721;SDS011;13578;53.450;15.496;2023-10-31T16:00:12;0.60;;;0.60;;
25721;SDS011;13578;53.450;15.496;2023-10-31T16:03:13;0.90;;;0.90;;
25721;SDS011;13578;53.450;15.496;2023-10-31T16:06:14;1.35;;;0.90;;
25721;SDS011;13578;53.450;15.496;2023-10-31T16:09:15;1.35;;;0.80;;
25721;SDS011;13578;53.450;15.496;2023-10-31T16:12:16;0.88;;;0.73;;
25721;SDS011;13578;53.450;15.496;2023-10-31T16:15:18;1.58;;;0.85;;
25721;SDS011;13578;53.450;15.496;2023-10-31T16:18:19;4.15;;;0.88;;
25721;SDS011;13578;53.450;15.496;2023-10-31T16:36:04;1.35;;;0.70;;
25721;SDS011;13578;53.450;15.496;2023-10-31T16:39:06;2.03;;;1.35;;
25721;SDS011;13578;53.450;15.496;2023-10-31T16:42:07;0.93;;;0.93;;
25721;SDS011;13578;53.450;15.496;2023-10-31T16:45:07;3.05;;;0.93;;
25721;SDS011;13578;53.450;15.496;2023-10-31T16:48:09;1.33;;;1.10;;
25721;SDS011;13578;53.450;15.496;2023-10-31T16:51:16;1.30;;;1.20;;
25721;SDS011;13578;53.450;15.496;2023-10-31T16:54:18;1.77;;;1.45;;
25721;SDS011;13578;53.450;15.496;2023-10-31T16:57:19;2.60;;;2.00;;
25721;SDS011;13578;53.450;15.496;2023-10-31T17:00:20;4.93;;;3.10;;
25721;SDS011;13578;53.450;15.496;2023-10-31T17:03:20;2.97;;;2.67;;
25721;SDS011;13578;53.450;15.496;2023-10-31T17:06:21;4.10;;;2.53;;
25721;SDS011;13578;53.450;15.496;2023-10-31T17:09:22;3.63;;;2.58;;
25721;SDS011;13578;53.450;15.496;2023-10-31T17:12:22;13.30;;;3.03;;
25721;SDS011;13578;53.450;15.496;2023-10-31T17:15:23;7.95;;;3.28;;
25721;SDS011;13578;53.450;15.496;2023-10-31T17:18:24;3.03;;;2.38;;
25721;SDS011;13578;53.450;15.496;2023-10-31T17:21:25;3.85;;;2.70;;
25721;SDS011;13578;53.450;15.496;2023-10-31T17:38:21;3.90;;;2.30;;
25721;SDS011;13578;53.450;15.496;2023-10-31T17:41:23;4.30;;;2.78;;
25721;SDS011;13578;53.450;15.496;2023-10-31T17:44:24;3.67;;;2.50;;
25721;SDS011;13578;53.450;15.496;2023-10-31T17:47:25;3.85;;;2.65;;
25721;SDS011;13578;53.450;15.496;2023-10-31T17:50:25;4.63;;;1.90;;
25721;SDS011;13578;53.450;15.496;2023-10-31T17:53:26;2.53;;;2.15;;
25721;SDS011;13578;53.450;15.496;2023-10-31T17:56:27;2.17;;;1.70;;
25721;SDS011;13578;53.450;15.496;2023-10-31T17:59:27;3.13;;;1.95;;
25721;SDS011;13578;53.450;15.496;2023-10-31T18:02:28;3.72;;;1.85;;
25721;SDS011;13578;53.450;15.496;2023-10-31T18:05:29;2.05;;;1.85;;
25721;SDS011;13578;53.450;15.496;2023-10-31T18:08:29;4.43;;;1.65;;
25721;SDS011;13578;53.450;15.496;2023-10-31T18:11:30;9.00;;;2.95;;
25721;SDS011;13578;53.450;15.496;2023-10-31T18:14:31;6.13;;;1.80;;
25721;SDS011;13578;53.450;15.496;2023-10-31T18:17:31;6.10;;;1.70;;
25721;SDS011;13578;53.450;15.496;2023-10-31T18:20:32;4.32;;;2.20;;